Time;durP1;ratioP1;P1;durP2;ratioP2;P2;SDS_P1;SDS_P2;PMS_P1;PMS_P2;Temp;Humidity;BMP_temperature;BMP_pressure;BME280_temperature;BME280_humidity;BME280_pressure;Samples;Min_cycle;Max_cycle;Signal;HPM_P1;HPM_P2
2023/01/04 00:02:17;;;;;;;;;;;;;;;6.55;100.00;101475.22;5051646;28;20310;-77
2023/01/04 00:04:42;;;;;;;;;;;;;;;6.55;100.00;101477.84;5078021;28;19994;-77
2023/01/04 00:07:08;;;;;;;;;;;;;;;6.54;100.00;101473.47;5059011;28;19935;-77
2023/01/04 00:09:33;;;;;;;;;;;;;;;6.52;100.00;101465.63;5064364;28;19928;-77
2023/01/04 00:11:59;;;;;;;;;;;;;;;6.53;100.00;101461.22;5084048;28;20035;-77
2023/01/04 00:14:24;;;;;;;;;;;;;;;6.53;100.00;101461.22;5063870;28;19983;-77
2023/01/04 00:16:49;;;;;;;;;;;;;;;6.54;100.00;101456.84;5060870;28;20027;-77
2023/01/04 00:19:15;;;;;;;;;;;;;;;6.52;100.00;101443.69;5079113;28;20027;-77
2023/01/04 00:21:40;;;;;;;;;;;;;;;6.53;100.00;101440.16;5061708;28;19970;-76
2023/01/04 00:24:06;;;;;;;;;;;;;;;6.54;100.00;101426.09;5058848;28;19928;-74
2023/01/04 00:26:32;;;;;;;;;;;;;;;6.54;100.00;101426.09;5064332;28;20612;-76
2023/01/04 00:29:04;;;;;;;;;;;;;;;6.54;100.00;101423.47;5065242;28;19971;-75
2023/01/04 00:31:30;;;;;;;;;;;;;;;6.55;100.00;101416.47;5063269;28;19928;-76
2023/01/04 00:33:56;;;;;;;;;;;;;;;6.54;100.00;101410.31;5059043;28;19920;-76
2023/01/04 00:36:25;;;;;;;;;;;;;;;6.57;100.00;101409.41;5065337;28;19923;-76
2023/01/04 00:39:05;;;;;;;;;;;;;;;6.57;100.00;101396.25;5031887;28;20500;-76
2023/01/04 00:41:51;;;;;;;;;;;;;;;6.56;100.00;101387.50;5060757;28;19939;-76
2023/01/04 00:44:17;;;;;;;;;;;;;;;6.57;100.00;101388.34;5060235;28;19969;-76
2023/01/04 00:46:42;;;;;;;;;;;;;;;6.58;100.00;101366.44;5064146;28;20352;-76
2023/01/04 00:49:08;;;;;;;;;;;;;;;6.57;100.00;101368.19;5077687;28;20524;-77
2023/01/04 00:51:35;;;;;;;;;;;;;;;6.58;100.00;101358.53;5077600;28;19978;-76
2023/01/04 00:54:01;;;;;;;;;;;;;;;6.59;100.00;101360.28;5059154;28;20781;-76
2023/01/04 00:56:27;;;;;;;;;;;;;;;6.58;100.00;101356.75;5077465;28;19989;-77
2023/01/04 00:58:54;;;;;;;;;;;;;;;6.60;100.00;101352.31;5078750;28;19932;-78
2023/01/04 01:01:19;;;;;;;;;;;;;;;6.61;100.00;101332.16;5054890;28;19948;-76
2023/01/04 01:03:44;;;;;;;;;;;;;;;6.62;100.00;101323.34;5079248;28;19928;-77
2023/01/04 01:06:11;;;;;;;;;;;;;;;6.63;100.00;101325.09;5059000;28;19970;-76
2023/01/04 01:08:36;;;;;;;;;;;;;;;6.63;100.00;101320.69;5081394;28;20027;-76
2023/01/04 01:11:06;;;;;;;;;;;;;;;6.65;100.00;101320.69;5078908;28;20563;-76
2023/01/04 01:13:31;;;;;;;;;;;;;;;6.65;100.00;101318.91;5076459;28;20415;-76
2023/01/04 01:16:01;;;;;;;;;;;;;;;6.65;100.00;101307.53;5076303;28;20076;-76
2023/01/04 01:18:27;;;;;;;;;;;;;;;6.65;100.00;101289.94;5079726;28;19963;-76
2023/01/04 01:20:53;;;;;;;;;;;;;;;6.68;100.00;101290.78;5073359;28;20065;-76
2023/01/04 01:23:18;;;;;;;;;;;;;;;6.68;100.00;101286.38;5057037;28;20442;-76
2023/01/04 01:25:43;;;;;;;;;;;;;;;6.68;100.00;101281.13;5055960;28;21186;-76
2023/01/04 01:28:09;;;;;;;;;;;;;;;6.69;100.00;101284.63;5054521;28;19974;-76
2023/01/04 01:30:38;;;;;;;;;;;;;;;6.69;100.00;101271.47;5058723;28;21927;-76
2023/01/04 01:33:03;;;;;;;;;;;;;;;6.70;100.00;101273.22;5044445;28;19931;-77
2023/01/04 01:35:29;;;;;;;;;;;;;;;6.71;100.00;101261.78;5060860;28;19961;-76
2023/01/04 01:37:54;;;;;;;;;;;;;;;6.72;100.00;101255.59;5058637;28;20022;-76
2023/01/04 01:40:19;;;;;;;;;;;;;;;6.73;100.00;101244.19;5056586;28;19931;-76
2023/01/04 01:42:45;;;;;;;;;;;;;;;6.74;100.00;101244.16;5076761;28;20382;-76
2023/01/04 01:45:22;;;;;;;;;;;;;;;6.78;100.00;101234.41;5059297;28;19954;-76
2023/01/04 01:47:47;;;;;;;;;;;;;;;6.78;100.00;101224.78;5075872;28;19928;-76
2023/01/04 01:50:16;;;;;;;;;;;;;;;6.81;100.00;101226.44;5041166;28;19923;-76
2023/01/04 01:52:42;;;;;;;;;;;;;;;6.85;100.00;101219.34;5062117;28;19927;-76
2023/01/04 01:55:08;;;;;;;;;;;;;;;6.87;100.00;101218.41;5079240;28;19984;-76
2023/01/04 01:57:36;;;;;;;;;;;;;;;6.90;100.00;101223.59;5079177;28;19936;-76
2023/01/04 02:00:09;;;;;;;;;;;;;;;6.91;100.00;101206.91;5063223;28;20417;-76
2023/01/04 02:02:35;;;;;;;;;;;;;;;6.95;100.00;101212.06;5062699;28;19931;-76
2023/01/04 02:05:01;;;;;;;;;;;;;;;6.96;100.00;101214.69;5052632;28;21929;-76
2023/01/04 02:07:26;;;;;;;;;;;;;;;6.97;100.00;101211.16;5045084;28;20318;-76
2023/01/04 02:09:52;;;;;;;;;;;;;;;6.98;100.00;101202.34;5053213;28;20187;-76
2023/01/04 02:12:17;;;;;;;;;;;;;;;7.01;100.00;101190.88;5067658;28;19988;-76
2023/01/04 02:14:43;;;;;;;;;;;;;;;7.02;100.00;101196.09;5087430;28;19975;-75
2023/01/04 02:17:11;;;;;;;;;;;;;;;7.05;100.00;101197.81;5083162;28;20379;-75
2023/01/04 02:19:56;;;;;;;;;;;;;;;7.06;100.00;101187.25;5051792;28;19927;-76
2023/01/04 02:22:36;;;;;;;;;;;;;;;7.09;100.00;101183.66;5085424;28;19927;-76
2023/01/04 02:25:05;;;;;;;;;;;;;;;7.12;100.00;101180.94;5068560;28;19935;-76
2023/01/04 02:27:39;;;;;;;;;;;;;;;7.15;100.00;101178.22;5082881;28;20375;-76
2023/01/04 02:30:07;;;;;;;;;;;;;;;7.16;100.00;101182.59;5067528;28;21098;-77
2023/01/04 02:32:39;;;;;;;;;;;;;;;7.18;100.00;101165.00;5085792;28;19935;-77
2023/01/04 02:35:23;;;;;;;;;;;;;;;7.22;100.00;101170.16;5065026;28;19927;-77
2023/01/04 02:38:12;;;;;;;;;;;;;;;7.23;100.00;101167.50;5086038;28;20398;-76
2023/01/04 02:40:56;;;;;;;;;;;;;;;7.26;100.00;101156.03;5073436;28;19928;-77
2023/01/04 02:46:18;;;;;;;;;;;;;;;7.32;100.00;101134.78;5063458;28;19967;-77
2023/01/04 02:51:29;;;;;;;;;;;;;;;7.39;100.00;101141.63;5080016;28;19938;-77
2023/01/04 02:53:55;;;;;;;;;;;;;;;7.43;100.00;101134.50;5060413;28;19938;-78
2023/01/04 02:56:34;;;;;;;;;;;;;;;7.45;100.00;101119.50;5037613;28;19928;-78
2023/01/04 02:59:11;;;;;;;;;;;;;;;7.47;100.00;101113.28;5062854;28;19985;-78
2023/01/04 03:07:23;;;;;;;;;;;;;;;7.50;100.00;101088.63;5060518;28;20007;-77
2023/01/04 03:09:48;;;;;;;;;;;;;;;7.50;100.00;101085.09;5067926;28;19974;-78
2023/01/04 03:12:31;;;;;;;;;;;;;;;7.51;100.00;101097.41;5064604;28;20026;-77
2023/01/04 03:15:01;;;;;;;;;;;;;;;7.52;100.00;101088.59;5066493;28;19924;-77
2023/01/04 03:17:27;;;;;;;;;;;;;;;7.54;100.00;101092.03;5057530;28;20548;-77
2023/01/04 03:19:53;;;;;;;;;;;;;;;7.54;100.00;101097.31;5060541;28;19959;-77
2023/01/04 03:36:17;;;;;;;;;;;;;;;7.63;100.00;101048.75;5066774;28;19935;-77
2023/01/04 03:49:59;;;;;;;;;;;;;;;7.67;100.00;101056.50;5078231;28;20394;-77
2023/01/04 03:52:26;;;;;;;;;;;;;;;7.72;100.00;101037.91;5080402;28;19967;-78
2023/01/04 03:54:51;;;;;;;;;;;;;;;7.81;100.00;101042.94;5042698;28;20367;-78
2023/01/04 03:57:16;;;;;;;;;;;;;;;7.95;100.00;101031.94;5060581;28;19932;-78
2023/01/04 03:59:49;;;;;;;;;;;;;;;8.06;100.00;101014.94;5056781;28;19928;-78
2023/01/04 04:02:18;;;;;;;;;;;;;;;8.15;100.00;101010.22;5057612;28;19928;-77
2023/01/04 04:10:11;;;;;;;;;;;;;;;8.29;100.00;101016.81;5058465;28;19996;-78
2023/01/04 04:12:37;;;;;;;;;;;;;;;8.33;100.00;101017.56;5056866;28;20026;-78
2023/01/04 04:15:03;;;;;;;;;;;;;;;8.36;100.00;100999.00;5047972;28;19924;-78
2023/01/04 04:17:28;;;;;;;;;;;;;;;8.39;100.00;100988.34;5048268;28;20359;-79
2023/01/04 04:19:54;;;;;;;;;;;;;;;8.46;100.00;100984.59;5066262;28;19923;-80
2023/01/04 04:22:19;;;;;;;;;;;;;;;8.49;100.00;100973.06;5066095;28;19986;-80
2023/01/04 04:24:44;;;;;;;;;;;;;;;8.54;100.00;100987.84;5082490;28;19928;-79
2023/01/04 04:27:10;;;;;;;;;;;;;;;8.58;100.00;100977.16;5052140;28;19988;-79
2023/01/04 04:29:35;;;;;;;;;;;;;;;8.66;100.00;100983.06;5083739;28;19955;-78
2023/01/04 04:32:00;;;;;;;;;;;;;;;8.72;100.00;100977.53;5066697;28;19935;-79
2023/01/04 04:34:26;;;;;;;;;;;;;;;8.78;100.00;100985.25;5069877;28;19928;-79
2023/01/04 04:36:51;;;;;;;;;;;;;;;8.84;100.00;100984.19;5081429;28;19935;-79
2023/01/04 04:39:17;;;;;;;;;;;;;;;8.91;100.00;100966.34;5082961;28;20019;-80
2023/01/04 04:41:42;;;;;;;;;;;;;;;8.95;100.00;100994.34;5062437;28;19966;-79
2023/01/04 04:44:09;;;;;;;;;;;;;;;8.98;100.00;100965.19;5059581;28;20010;-79
2023/01/04 04:46:34;;;;;;;;;;;;;;;9.04;100.00;100977.31;5058872;28;20341;-78
2023/01/04 04:49:00;;;;;;;;;;;;;;;9.06;100.00;100978.97;5058005;28;19979;-78
2023/01/04 04:51:25;;;;;;;;;;;;;;;9.08;100.00;100973.63;5060981;28;19940;-79
2023/01/04 04:53:51;;;;;;;;;;;;;;;9.09;100.00;100988.56;5067406;28;19928;-79
2023/01/04 04:56:16;;;;;;;;;;;;;;;9.10;100.00;100983.22;5063498;28;19932;-80
2023/01/04 04:58:41;;;;;;;;;;;;;;;9.13;100.00;100986.66;5052641;28;19932;-79
2023/01/04 05:01:07;;;;;;;;;;;;;;;9.15;100.00;100984.84;5079797;28;19960;-80
2023/01/04 05:03:32;;;;;;;;;;;;;;;9.15;100.00;100975.13;5058205;28;19928;-78
2023/01/04 05:05:58;;;;;;;;;;;;;;;9.16;100.00;100978.63;5076592;28;19928;-78
2023/01/04 05:08:23;;;;;;;;;;;;;;;9.16;100.00;100997.13;5080401;28;19970;-79
2023/01/04 05:10:49;;;;;;;;;;;;;;;9.14;100.00;100986.63;5057390;28;19928;-79
2023/01/04 05:13:14;;;;;;;;;;;;;;;9.14;100.00;100978.69;5042868;28;20481;-79
2023/01/04 05:15:44;;;;;;;;;;;;;;;9.09;100.00;100970.94;5058522;28;20482;-79
2023/01/04 05:18:10;;;;;;;;;;;;;;;9.05;100.00;100971.13;5056162;28;19951;-79
2023/01/04 05:20:35;;;;;;;;;;;;;;;8.96;100.00;100967.91;5055974;28;20614;-79
2023/01/04 05:23:01;;;;;;;;;;;;;;;8.89;100.00;100958.47;5047797;28;20018;-79
2023/01/04 05:25:26;;;;;;;;;;;;;;;8.83;100.00;100953.44;5056621;28;20046;-79
2023/01/04 05:27:52;;;;;;;;;;;;;;;8.77;100.00;100957.13;5075046;28;20563;-78
2023/01/04 05:33:02;;;;;;;;;;;;;;;8.70;100.00;100950.34;5082511;28;20796;-78
2023/01/04 05:35:27;;;;;;;;;;;;;;;8.67;100.00;100937.28;5064695;28;19935;-79
2023/01/04 05:37:53;;;;;;;;;;;;;;;8.64;100.00;100942.66;5056189;28;19928;-78
2023/01/04 05:40:18;;;;;;;;;;;;;;;8.60;100.00;100931.34;5062956;28;20002;-79
2023/01/04 05:42:44;;;;;;;;;;;;;;;8.60;100.00;100930.50;5061971;28;19967;-79
2023/01/04 05:45:09;;;;;;;;;;;;;;;8.56;100.00;100925.31;5061778;28;19939;-78
2023/01/04 05:47:35;;;;;;;;;;;;;;;8.57;100.00;100936.75;5078525;28;19928;-78
2023/01/04 05:50:00;;;;;;;;;;;;;;;8.55;100.00;100949.97;5058321;28;20611;-79
2023/01/04 05:52:26;;;;;;;;;;;;;;;8.53;100.00;100936.00;5063325;28;20002;-79
2023/01/04 05:54:51;;;;;;;;;;;;;;;8.56;100.00;100948.22;5064911;28;19928;-78
2023/01/04 05:57:17;;;;;;;;;;;;;;;8.58;100.00;100949.03;5059104;28;20629;-79
2023/01/04 05:59:42;;;;;;;;;;;;;;;8.63;100.00;100952.38;5080800;28;21395;-78
2023/01/04 06:02:16;;;;;;;;;;;;;;;8.71;100.00;100953.88;5062046;28;19928;-78
2023/01/04 06:04:42;;;;;;;;;;;;;;;8.81;100.00;100952.59;5061488;28;19928;-79
2023/01/04 06:07:07;;;;;;;;;;;;;;;8.91;100.00;100971.59;5046302;28;20965;-78
2023/01/04 06:09:33;;;;;;;;;;;;;;;8.96;100.00;100961.75;5060897;28;20005;-78
2023/01/04 06:11:58;;;;;;;;;;;;;;;9.04;100.00;100967.59;5083900;28;20045;-79
2023/01/04 06:14:24;;;;;;;;;;;;;;;9.06;100.00;100965.75;5050443;28;19942;-78
2023/01/04 06:16:49;;;;;;;;;;;;;;;9.06;100.00;100944.63;5086618;28;19935;-79
2023/01/04 06:19:15;;;;;;;;;;;;;;;9.07;100.00;100950.78;5064138;28;20023;-78
2023/01/04 06:21:40;;;;;;;;;;;;;;;9.08;100.00;100948.09;5065876;28;20351;-80
2023/01/04 06:24:06;;;;;;;;;;;;;;;9.10;100.00;100956.81;5086422;28;20499;-79
2023/01/04 06:26:31;;;;;;;;;;;;;;;9.13;100.00;100936.47;5085947;28;19942;-78
2023/01/04 06:28:56;;;;;;;;;;;;;;;9.13;100.00;100941.75;5085366;28;20022;-79
2023/01/04 06:31:22;;;;;;;;;;;;;;;9.15;100.00;100942.59;5050719;28;19935;-79
2023/01/04 06:33:47;;;;;;;;;;;;;;;9.14;100.00;100946.16;5080893;28;19928;-79
2023/01/04 06:36:13;;;;;;;;;;;;;;;9.15;100.00;100953.16;5047092;28;20528;-79
2023/01/04 06:38:38;;;;;;;;;;;;;;;9.15;100.00;100932.03;5078857;28;19936;-77
2023/01/04 06:41:03;;;;;;;;;;;;;;;9.17;100.00;100940.72;5083820;28;19935;-79
2023/01/04 06:43:29;;;;;;;;;;;;;;;9.20;100.00;100941.47;5075694;28;19928;-79
2023/01/04 06:45:54;;;;;;;;;;;;;;;9.23;100.00;100941.38;5077895;28;19939;-78
2023/01/04 06:48:20;;;;;;;;;;;;;;;9.24;100.00;100950.16;5062327;28;19927;-78
2023/01/04 06:50:45;;;;;;;;;;;;;;;9.27;100.00;100934.19;5077556;28;21009;-79
2023/01/04 06:53:11;;;;;;;;;;;;;;;9.28;100.00;100932.41;5054600;28;20601;-78
2023/01/04 06:55:36;;;;;;;;;;;;;;;9.27;100.00;100931.56;5079139;28;19927;-78
2023/01/04 06:58:01;;;;;;;;;;;;;;;9.28;100.00;100928.00;5081883;28;21658;-78
2023/01/04 07:00:27;;;;;;;;;;;;;;;9.27;100.00;100936.84;5078604;28;20672;-78
2023/01/04 07:02:52;;;;;;;;;;;;;;;9.28;100.00;100914.78;5055249;28;19929;-78
2023/01/04 07:05:18;;;;;;;;;;;;;;;9.28;100.00;100925.34;5071269;28;19936;-78
2023/01/04 07:07:43;;;;;;;;;;;;;;;9.29;100.00;100920.91;5067519;28;19932;-78
2023/01/04 07:10:08;;;;;;;;;;;;;;;9.29;100.00;100924.41;5066920;28;19997;-78
2023/01/04 07:12:34;;;;;;;;;;;;;;;9.30;100.00;100906.75;5062830;28;19928;-78
2023/01/04 07:15:00;;;;;;;;;;;;;;;9.29;100.00;100903.28;5077953;28;19974;-79
2023/01/04 07:17:25;;;;;;;;;;;;;;;9.28;100.00;100909.50;5080217;28;20410;-79
2023/01/04 07:19:50;;;;;;;;;;;;;;;9.27;100.00;100910.41;5084585;28;21972;-78
2023/01/04 07:22:16;;;;;;;;;;;;;;;9.26;100.00;100898.09;5070599;28;19932;-78
2023/01/04 07:24:42;;;;;;;;;;;;;;;9.27;100.00;100897.22;5059774;28;19931;-78
2023/01/04 07:27:08;;;;;;;;;;;;;;;9.26;100.00;100890.19;5083838;28;19938;-79
2023/01/04 07:29:33;;;;;;;;;;;;;;;9.26;100.00;100892.81;5081736;28;19928;-79
2023/01/04 07:31:59;;;;;;;;;;;;;;;9.25;100.00;100885.81;5079026;28;19928;-80
2023/01/04 07:34:24;;;;;;;;;;;;;;;9.25;100.00;100901.66;5075851;28;19931;-79
2023/01/04 07:36:50;;;;;;;;;;;;;;;9.23;100.00;100890.31;5042032;28;19924;-79
2023/01/04 07:39:16;;;;;;;;;;;;;;;9.23;100.00;100898.22;5056024;28;19939;-79
2023/01/04 07:41:42;;;;;;;;;;;;;;;9.24;100.00;100877.06;5042916;28;19924;-79
2023/01/04 07:44:07;;;;;;;;;;;;;;;9.25;100.00;100901.66;5064647;28;19931;-79
2023/01/04 07:46:33;;;;;;;;;;;;;;;9.26;100.00;100886.69;5055659;28;19935;-79
2023/01/04 07:48:58;;;;;;;;;;;;;;;9.25;100.00;100891.09;5042314;28;22086;-79
2023/01/04 07:51:24;;;;;;;;;;;;;;;9.24;100.00;100887.63;5045376;28;19931;-79
2023/01/04 07:53:49;;;;;;;;;;;;;;;9.24;100.00;100878.81;5051902;28;19955;-79
2023/01/04 07:56:15;;;;;;;;;;;;;;;9.26;100.00;100876.97;5070688;27;19932;-78
2023/01/04 07:58:41;;;;;;;;;;;;;;;9.26;100.00;100881.41;5074142;28;19932;-78
2023/01/04 08:01:13;;;;;;;;;;;;;;;9.27;100.00;100899.84;5071895;28;19964;-81
2023/01/04 08:03:38;;;;;;;;;;;;;;;9.26;100.00;100898.09;5052075;28;19928;-79
2023/01/04 08:06:05;;;;;;;;;;;;;;;9.27;100.00;100894.56;5070007;28;19931;-79
2023/01/04 08:08:30;;;;;;;;;;;;;;;9.27;100.00;100905.13;5043032;28;19927;-78
2023/01/04 08:10:59;;;;;;;;;;;;;;;9.28;100.00;100900.69;5050785;28;19923;-80
2023/01/04 08:13:24;;;;;;;;;;;;;;;9.29;100.00;100899.75;5070930;28;20035;-79
2023/01/04 08:15:53;;;;;;;;;;;;;;;9.28;100.00;100901.56;5069994;28;20478;-79
2023/01/04 08:18:18;;;;;;;;;;;;;;;9.30;100.00;100899.72;5051755;28;19928;-79
2023/01/04 08:20:44;;;;;;;;;;;;;;;9.30;100.00;100902.34;5055383;28;20027;-78
2023/01/04 08:23:10;;;;;;;;;;;;;;;9.31;100.00;100901.44;5054519;28;20659;-79
2023/01/04 08:25:38;;;;;;;;;;;;;;;9.33;100.00;100906.66;5072847;28;20041;-79
2023/01/04 08:28:03;;;;;;;;;;;;;;;9.37;100.00;100914.41;5077984;28;19971;-80
2023/01/04 08:30:29;;;;;;;;;;;;;;;9.36;100.00;100917.97;5058204;28;20018;-80
2023/01/04 08:32:54;;;;;;;;;;;;;;;9.37;100.00;100910.88;5074801;28;19926;-80
2023/01/04 08:35:20;;;;;;;;;;;;;;;9.37;100.00;100916.16;5072881;28;19935;-79
2023/01/04 08:37:45;;;;;;;;;;;;;;;9.36;100.00;100920.63;5075355;28;20306;-80
2023/01/04 08:40:11;;;;;;;;;;;;;;;9.36;100.00;100920.63;5073506;28;20705;-80
2023/01/04 08:42:36;;;;;;;;;;;;;;;9.36;100.00;100917.97;5049146;28;20015;-79
2023/01/04 08:45:02;;;;;;;;;;;;;;;9.36;100.00;100931.19;5055708;28;19927;-79
2023/01/04 08:47:28;;;;;;;;;;;;;;;9.38;100.00;100928.50;5042610;28;20072;-78
2023/01/04 08:49:54;;;;;;;;;;;;;;;9.39;100.00;100924.91;5055943;28;20714;-79
2023/01/04 08:52:19;;;;;;;;;;;;;;;9.40;100.00;100925.75;5055934;28;19928;-79
2023/01/04 08:54:45;;;;;;;;;;;;;;;9.41;100.00;100930.16;5057235;28;19939;-79
2023/01/04 08:57:10;;;;;;;;;;;;;;;9.43;100.00;100923.03;5058492;28;20379;-79
2023/01/04 08:59:35;;;;;;;;;;;;;;;9.44;100.00;100930.03;5056530;28;20402;-78
2023/01/04 09:02:01;;;;;;;;;;;;;;;9.45;100.00;100910.59;5076392;28;19993;-78
2023/01/04 09:04:26;;;;;;;;;;;;;;;9.47;100.00;100924.59;5076825;28;19958;-79
2023/01/04 09:06:52;;;;;;;;;;;;;;;9.47;100.00;100927.25;5060318;28;20635;-78
2023/01/04 09:09:17;;;;;;;;;;;;;;;9.49;100.00;100920.13;5080623;28;20187;-79
2023/01/04 09:11:43;;;;;;;;;;;;;;;9.51;100.00;100923.56;5077429;28;20722;-78
2023/01/04 09:14:09;;;;;;;;;;;;;;;9.53;100.00;100931.44;5053798;28;19932;-79
2023/01/04 09:16:35;;;;;;;;;;;;;;;9.54;100.00;100920.81;5074754;28;19935;-78
2023/01/04 09:19:01;;;;;;;;;;;;;;;9.57;100.00;100930.38;5063253;28;19928;-79
2023/01/04 09:21:26;;;;;;;;;;;;;;;9.58;100.00;100932.13;5071541;28;20036;-78
2023/01/04 09:23:52;;;;;;;;;;;;;;;9.59;100.00;100942.63;5080572;28;19985;-79
2023/01/04 09:26:21;;;;;;;;;;;;;;;9.61;100.00;100934.63;5058475;28;19924;-78
2023/01/04 09:28:46;;;;;;;;;;;;;;;9.62;100.00;100947.81;5061183;28;20035;-78
2023/01/04 09:31:16;;;;;;;;;;;;;;;9.65;100.00;100941.53;5081523;28;19928;-78
2023/01/04 09:33:42;;;;;;;;;;;;;;;9.67;100.00;100941.44;5079245;28;19970;-80
2023/01/04 09:36:07;;;;;;;;;;;;;;;9.70;100.00;100938.69;5053368;28;19935;-78
2023/01/04 09:38:33;;;;;;;;;;;;;;;9.72;100.00;100942.13;5060708;28;20290;-79
2023/01/04 09:41:19;;;;;;;;;;;;;;;9.75;100.00;100934.09;5058411;28;20024;-79
2023/01/04 09:43:46;;;;;;;;;;;;;;;9.75;100.00;100934.94;5063046;28;19924;-78
2023/01/04 09:46:17;;;;;;;;;;;;;;;9.78;100.00;100915.44;5050012;28;20360;-78
2023/01/04 09:48:43;;;;;;;;;;;;;;;9.80;100.00;100929.47;5046976;28;19928;-78
2023/01/04 09:51:13;;;;;;;;;;;;;;;9.81;100.00;100931.19;5059782;28;19950;-79
2023/01/04 09:53:48;;;;;;;;;;;;;;;9.84;100.00;100932.84;5061836;28;20057;-78
2023/01/04 09:56:20;;;;;;;;;;;;;;;9.86;100.00;100929.22;5078432;28;20378;-79
2023/01/04 09:58:45;;;;;;;;;;;;;;;9.87;100.00;100925.63;5082189;28;20056;-78
2023/01/04 10:01:17;;;;;;;;;;;;;;;9.89;100.00;100930.88;5078426;28;20023;-78
2023/01/04 10:03:54;;;;;;;;;;;;;;;9.90;100.00;100925.53;5062780;28;20862;-79
2023/01/04 10:06:20;;;;;;;;;;;;;;;9.92;100.00;100928.97;5078262;28;19924;-78
2023/01/04 10:08:45;;;;;;;;;;;;;;;9.95;100.00;100922.69;5078898;28;20410;-78
2023/01/04 10:11:15;;;;;;;;;;;;;;;9.96;100.00;100934.97;5055761;28;19924;-79
2023/01/04 10:13:49;;;;;;;;;;;;;;;9.99;100.00;100920.78;5056947;28;19928;-80
2023/01/04 10:16:21;;;;;;;;;;;;;;;10.03;100.00;100920.56;5059056;28;19951;-79
2023/01/04 10:18:56;;;;;;;;;;;;;;;10.07;100.00;100934.53;5050996;28;19927;-79
2023/01/04 10:21:25;;;;;;;;;;;;;;;10.10;100.00;100918.56;5044495;28;19927;-79
2023/01/04 10:23:50;;;;;;;;;;;;;;;10.14;100.00;100919.28;5078529;28;19928;-79
2023/01/04 10:26:19;;;;;;;;;;;;;;;10.16;100.00;100920.06;5075683;28;20385;-78
2023/01/04 10:28:53;;;;;;;;;;;;;;;10.19;100.00;100928.72;5078452;28;19927;-78
2023/01/04 10:31:26;;;;;;;;;;;;;;;10.21;100.00;100917.22;5079576;28;20307;-78
2023/01/04 10:34:05;;;;;;;;;;;;;;;10.24;100.00;100930.31;5075806;28;20875;-79
2023/01/04 10:36:31;;;;;;;;;;;;;;;10.25;100.00;100913.53;5057657;28;20347;-78
2023/01/04 10:39:11;;;;;;;;;;;;;;;10.25;100.00;100913.53;5044877;28;19930;-78
2023/01/04 10:42:03;;;;;;;;;;;;;;;10.29;100.00;100920.38;5054356;28;20408;-79
2023/01/04 10:44:35;;;;;;;;;;;;;;;10.29;100.00;100899.22;5074489;28;20390;-78
2023/01/04 10:47:03;;;;;;;;;;;;;;;10.30;100.00;100901.81;5060985;28;21941;-79
2023/01/04 10:49:35;;;;;;;;;;;;;;;10.34;100.00;100894.59;5049034;28;20472;-79
2023/01/04 10:52:21;;;;;;;;;;;;;;;10.36;100.00;100895.41;5060297;28;19928;-80
2023/01/04 10:54:48;;;;;;;;;;;;;;;10.35;100.00;100904.25;5058442;28;19997;-80
2023/01/04 10:57:22;;;;;;;;;;;;;;;10.31;100.00;100918.56;5056618;28;19935;-80
2023/01/04 10:59:50;;;;;;;;;;;;;;;10.25;100.00;100902.94;5066569;28;19928;-79
2023/01/04 11:02:16;;;;;;;;;;;;;;;10.19;100.00;100927.88;5080404;28;19961;-80
2023/01/04 11:04:52;;;;;;;;;;;;;;;10.13;100.00;100910.47;5072327;28;19920;-80
2023/01/04 11:07:18;;;;;;;;;;;;;;;10.09;100.00;100893.03;5057652;28;19923;-79
2023/01/04 11:09:48;;;;;;;;;;;;;;;10.07;100.00;100894.00;5032951;28;19919;-79
2023/01/04 11:12:15;;;;;;;;;;;;;;;10.06;100.00;100882.56;5075720;28;20283;-79
2023/01/04 11:14:40;;;;;;;;;;;;;;;10.08;100.00;100880.69;5050870;28;20552;-79
2023/01/04 11:17:09;;;;;;;;;;;;;;;10.11;100.00;100885.88;5058144;28;19928;-81
2023/01/04 11:19:34;;;;;;;;;;;;;;;10.12;100.00;100877.00;5058168;28;19927;-79
2023/01/04 11:22:02;;;;;;;;;;;;;;;10.15;100.00;100884.78;5078918;28;19928;-80
2023/01/04 11:24:28;;;;;;;;;;;;;;;10.16;100.00;100878.59;5057625;28;19923;-78
2023/01/04 11:26:53;;;;;;;;;;;;;;;10.19;100.00;100882.91;5042833;28;20532;-79
2023/01/04 11:29:39;;;;;;;;;;;;;;;10.18;100.00;100882.03;5058229;28;19932;-79
2023/01/04 11:32:10;;;;;;;;;;;;;;;10.19;100.00;100873.16;5048797;28;20498;-79
2023/01/04 11:34:50;;;;;;;;;;;;;;;10.22;100.00;100871.31;5057196;28;19928;-79
2023/01/04 11:37:42;;;;;;;;;;;;;;;10.23;100.00;100863.31;5077941;28;20378;-79
2023/01/04 11:40:11;;;;;;;;;;;;;;;10.26;100.00;100872.91;5049441;28;20478;-80
2023/01/04 11:42:37;;;;;;;;;;;;;;;10.27;100.00;100856.09;5056311;28;19942;-79
2023/01/04 11:45:02;;;;;;;;;;;;;;;10.28;100.00;100860.44;5053745;28;19928;-79
2023/01/04 11:47:28;;;;;;;;;;;;;;;10.30;100.00;100863.91;5075169;28;20189;-80
2023/01/04 11:49:54;;;;;;;;;;;;;;;10.32;100.00;100876.16;5059408;28;19920;-80
2023/01/04 11:52:30;;;;;;;;;;;;;;;10.34;100.00;100860.19;5058597;28;19928;-78
2023/01/04 11:54:55;;;;;;;;;;;;;;;10.36;100.00;100862.78;5075908;28;20615;-81
2023/01/04 11:57:21;;;;;;;;;;;;;;;10.36;100.00;100868.94;5057545;28;19939;-82
2023/01/04 12:00:06;;;;;;;;;;;;;;;10.37;100.00;100870.66;5078277;28;19932;-80
2023/01/04 12:02:31;;;;;;;;;;;;;;;10.38;100.00;100864.44;5067067;28;19924;-79
2023/01/04 12:04:57;;;;;;;;;;;;;;;10.39;100.00;100868.78;5079518;28;19927;-80
2023/01/04 12:07:22;;;;;;;;;;;;;;;10.40;100.00;100853.78;5076795;28;20371;-81
2023/01/04 12:09:47;;;;;;;;;;;;;;;10.39;100.00;100844.09;5076017;28;19971;-85
2023/01/04 12:12:13;;;;;;;;;;;;;;;10.39;100.00;100842.31;5051761;28;19978;-80
2023/01/04 12:14:39;;;;;;;;;;;;;;;10.37;100.00;100838.03;5073667;28;20665;-80
2023/01/04 12:17:19;;;;;;;;;;;;;;;10.35;100.00;100830.16;5058367;28;19923;-80
2023/01/04 12:19:44;;;;;;;;;;;;;;;10.33;100.00;100826.72;5061111;28;19928;-80
2023/01/04 12:22:28;;;;;;;;;;;;;;;10.32;100.00;100830.28;5062365;28;20414;-85
2023/01/04 12:24:53;;;;;;;;;;;;;;;10.32;100.00;100814.41;5057434;28;21218;-80
2023/01/04 12:27:19;;;;;;;;;;;;;;;10.31;100.00;100823.28;5053681;28;19928;-80
2023/01/04 12:30:01;;;;;;;;;;;;;;;10.29;100.00;100827.78;5054731;28;19928;-81
2023/01/04 12:32:26;;;;;;;;;;;;;;;10.28;100.00;100840.16;5056679;28;19939;-79
2023/01/04 12:34:51;;;;;;;;;;;;;;;10.26;100.00;100833.22;5075597;28;19927;-78
2023/01/04 12:37:36;;;;;;;;;;;;;;;10.24;100.00;100843.84;5057959;28;19935;-80
2023/01/04 12:40:02;;;;;;;;;;;;;;;10.22;100.00;100832.50;5075012;28;20025;-80
2023/01/04 12:42:27;;;;;;;;;;;;;;;10.22;100.00;100834.25;5059223;28;20329;-79
2023/01/04 12:44:53;;;;;;;;;;;;;;;10.21;100.00;100829.91;5076846;28;20386;-81
2023/01/04 12:50:14;;;;;;;;;;;;;;;10.21;100.00;100840.50;5077337;28;20438;-80
2023/01/04 12:52:41;;;;;;;;;;;;;;;10.21;100.00;100838.72;5057917;28;21780;-80
2023/01/04 12:55:26;;;;;;;;;;;;;;;10.21;100.00;100851.94;5064634;28;19923;-79
2023/01/04 12:57:52;;;;;;;;;;;;;;;10.22;100.00;100845.72;5058830;28;19954;-81
2023/01/04 13:00:17;;;;;;;;;;;;;;;10.23;100.00;100846.59;5070711;28;20540;-81
2023/01/04 13:02:46;;;;;;;;;;;;;;;10.23;100.00;100843.94;5045180;28;20485;-81
2023/01/04 13:05:17;;;;;;;;;;;;;;;10.24;100.00;100849.16;5072645;28;19931;-81
2023/01/04 13:07:43;;;;;;;;;;;;;;;10.26;100.00;100851.72;5062208;28;19924;-82
2023/01/04 13:10:27;;;;;;;;;;;;;;;10.25;100.00;100857.97;5051448;28;19994;-81
2023/01/04 13:12:53;;;;;;;;;;;;;;;10.24;100.00;100864.19;5074628;28;19931;-81
2023/01/04 13:15:20;;;;;;;;;;;;;;;10.25;100.00;100860.59;5078053;28;19924;-80
2023/01/04 13:17:45;;;;;;;;;;;;;;;10.24;100.00;100853.59;5055868;28;20414;-81
2023/01/04 13:20:13;;;;;;;;;;;;;;;10.23;100.00;100863.31;5051202;28;19923;-81
2023/01/04 13:22:38;;;;;;;;;;;;;;;10.22;100.00;100850.13;5051908;28;19932;-83
2023/01/04 13:25:09;;;;;;;;;;;;;;;10.22;100.00;100876.59;5052312;28;20831;-82